sensor_id;sensor_type;location;lat;lon;timestamp;pressure;altitude;pressure_sealevel;temperature;humidity
74466;BME280;62916;50.044;15.938;2023-09-19T00:01:10;98517.46;;;26.54;49.05
74466;BME280;62916;50.044;15.938;2023-09-19T00:03:42;98524.73;;;26.52;48.89
74466;BME280;62916;50.044;15.938;2023-09-19T00:06:13;98523.73;;;26.51;48.96
74466;BME280;62916;50.044;15.938;2023-09-19T00:08:45;98529.09;;;26.51;48.70
74466;BME280;62916;50.044;15.938;2023-09-19T00:11:17;98524.27;;;26.49;48.93
74466;BME280;62916;50.044;15.938;2023-09-19T00:13:50;98522.13;;;26.48;48.88
74466;BME280;62916;50.044;15.938;2023-09-19T00:16:21;98519.32;;;26.46;49.12
74466;BME280;62916;50.044;15.938;2023-09-19T00:18:52;98523.35;;;26.44;48.96
74466;BME280;62916;50.044;15.938;2023-09-19T00:21:23;98528.09;;;26.42;49.23
74466;BME280;62916;50.044;15.938;2023-09-19T00:23:54;98528.08;;;26.41;48.94
74466;BME280;62916;50.044;15.938;2023-09-19T00:26:24;98524.85;;;26.38;49.28
74466;BME280;62916;50.044;15.938;2023-09-19T00:28:55;98521.16;;;26.36;49.12
74466;BME280;62916;50.044;15.938;2023-09-19T00:31:27;98523.50;;;26.35;49.28
74466;BME280;62916;50.044;15.938;2023-09-19T00:33:59;98526.08;;;26.34;49.28
74466;BME280;62916;50.044;15.938;2023-09-19T00:36:34;98521.26;;;26.33;49.36
74466;BME280;62916;50.044;15.938;2023-09-19T00:39:08;98521.46;;;26.31;49.44
74466;BME280;62916;50.044;15.938;2023-09-19T00:41:40;98514.68;;;26.30;49.20
74466;BME280;62916;50.044;15.938;2023-09-19T00:44:14;98515.05;;;26.28;49.22
74466;BME280;62916;50.044;15.938;2023-09-19T00:46:47;98514.15;;;26.25;49.25
74466;BME280;62916;50.044;15.938;2023-09-19T00:49:19;98506.43;;;26.25;49.12
74466;BME280;62916;50.044;15.938;2023-09-19T00:51:52;98504.78;;;26.24;49.13
74466;BME280;62916;50.044;15.938;2023-09-19T00:54:23;98498.83;;;26.23;49.47
74466;BME280;62916;50.044;15.938;2023-09-19T00:56:55;98500.64;;;26.20;49.18
74466;BME280;62916;50.044;15.938;2023-09-19T00:59:26;98498.18;;;26.20;49.27
74466;BME280;62916;50.044;15.938;2023-09-19T01:01:58;98495.73;;;26.19;49.27
74466;BME280;62916;50.044;15.938;2023-09-19T01:04:30;98488.48;;;26.14;49.22
74466;BME280;62916;50.044;15.938;2023-09-19T01:07:01;98500.47;;;26.17;49.35
74466;BME280;62916;50.044;15.938;2023-09-19T01:09:32;98499.54;;;26.15;49.35
74466;BME280;62916;50.044;15.938;2023-09-19T01:12:06;98495.51;;;26.08;49.38
74466;BME280;62916;50.044;15.938;2023-09-19T01:14:44;98508.45;;;26.13;49.17
74466;BME280;62916;50.044;15.938;2023-09-19T01:17:23;98507.83;;;26.11;49.26
74466;BME280;62916;50.044;15.938;2023-09-19T01:20:15;98502.92;;;26.10;49.37
74466;BME280;62916;50.044;15.938;2023-09-19T01:22:56;98505.69;;;26.10;49.43
74466;BME280;62916;50.044;15.938;2023-09-19T01:26:06;98507.39;;;26.10;49.49
74466;BME280;62916;50.044;15.938;2023-09-19T01:28:51;98507.39;;;26.10;49.27
74466;BME280;62916;50.044;15.938;2023-09-19T01:31:24;98506.73;;;26.10;49.36
74466;BME280;62916;50.044;15.938;2023-09-19T01:34:01;98505.02;;;26.10;49.42
74466;BME280;62916;50.044;15.938;2023-09-19T01:36:35;98503.73;;;26.10;49.57
74466;BME280;62916;50.044;15.938;2023-09-19T01:39:10;98502.73;;;26.09;49.43
74466;BME280;62916;50.044;15.938;2023-09-19T01:41:51;98501.23;;;26.07;49.49
74466;BME280;62916;50.044;15.938;2023-09-19T01:44:29;98504.23;;;26.06;49.53
74466;BME280;62916;50.044;15.938;2023-09-19T01:47:08;98501.97;;;26.04;49.56
74466;BME280;62916;50.044;15.938;2023-09-19T01:49:48;98505.09;;;26.04;49.30
74466;BME280;62916;50.044;15.938;2023-09-19T01:52:21;98506.74;;;26.02;49.23
74466;BME280;62916;50.044;15.938;2023-09-19T01:54:58;98506.62;;;26.00;49.28
74466;BME280;62916;50.044;15.938;2023-09-19T01:57:37;98508.20;;;25.98;49.40
74466;BME280;62916;50.044;15.938;2023-09-19T02:00:14;98513.30;;;25.99;49.52
74466;BME280;62916;50.044;15.938;2023-09-19T02:02:48;98512.83;;;25.98;49.28
74466;BME280;62916;50.044;15.938;2023-09-19T02:05:25;98512.48;;;25.98;49.38
74466;BME280;62916;50.044;15.938;2023-09-19T02:07:57;98508.67;;;25.98;49.16
74466;BME280;62916;50.044;15.938;2023-09-19T02:10:28;98509.95;;;25.97;49.48
74466;BME280;62916;50.044;15.938;2023-09-19T02:12:59;98514.41;;;25.97;49.29
74466;BME280;62916;50.044;15.938;2023-09-19T02:15:30;98510.01;;;25.96;49.24
74466;BME280;62916;50.044;15.938;2023-09-19T02:18:05;98511.13;;;25.95;49.47
74466;BME280;62916;50.044;15.938;2023-09-19T02:20:36;98513.55;;;25.94;49.38
74466;BME280;62916;50.044;15.938;2023-09-19T02:23:08;98507.38;;;25.87;49.51
74466;BME280;62916;50.044;15.938;2023-09-19T02:25:39;98517.46;;;25.92;49.34
74466;BME280;62916;50.044;15.938;2023-09-19T02:28:10;98515.15;;;25.90;49.32
74466;BME280;62916;50.044;15.938;2023-09-19T02:30:42;98508.07;;;25.89;49.11
74466;BME280;62916;50.044;15.938;2023-09-19T02:33:12;98514.02;;;25.87;49.14
74466;BME280;62916;50.044;15.938;2023-09-19T02:35:43;98511.92;;;25.84;49.21
74466;BME280;62916;50.044;15.938;2023-09-19T02:38:15;98516.08;;;25.85;49.02
74466;BME280;62916;50.044;15.938;2023-09-19T02:40:50;98515.55;;;25.83;48.95
74466;BME280;62916;50.044;15.938;2023-09-19T02:43:21;98518.19;;;25.81;49.20
74466;BME280;62916;50.044;15.938;2023-09-19T02:45:52;98513.52;;;25.80;48.99
74466;BME280;62916;50.044;15.938;2023-09-19T02:48:24;98511.44;;;25.77;49.00
74466;BME280;62916;50.044;15.938;2023-09-19T02:50:55;98514.98;;;25.76;49.02
74466;BME280;62916;50.044;15.938;2023-09-19T02:53:26;98511.02;;;25.73;49.18
74466;BME280;62916;50.044;15.938;2023-09-19T02:55:57;98511.90;;;25.72;49.29
74466;BME280;62916;50.044;15.938;2023-09-19T02:58:28;98520.81;;;25.72;49.00
74466;BME280;62916;50.044;15.938;2023-09-19T03:01:00;98521.44;;;25.71;48.99
74466;BME280;62916;50.044;15.938;2023-09-19T03:03:37;98514.18;;;25.67;48.92
74466;BME280;62916;50.044;15.938;2023-09-19T03:06:10;98519.13;;;25.66;48.83
74466;BME280;62916;50.044;15.938;2023-09-19T03:08:42;98519.30;;;25.63;48.88
74466;BME280;62916;50.044;15.938;2023-09-19T03:11:13;98523.20;;;25.60;48.88
74466;BME280;62916;50.044;15.938;2023-09-19T03:13:45;98523.54;;;25.58;48.85
74466;BME280;62916;50.044;15.938;2023-09-19T03:16:17;98523.64;;;25.56;48.80
74466;BME280;62916;50.044;15.938;2023-09-19T03:18:48;98521.88;;;25.54;48.82
74466;BME280;62916;50.044;15.938;2023-09-19T03:21:19;98519.50;;;25.52;48.75
74466;BME280;62916;50.044;15.938;2023-09-19T03:23:51;98516.13;;;25.51;48.85
74466;BME280;62916;50.044;15.938;2023-09-19T03:26:22;98515.84;;;25.52;48.79
74466;BME280;62916;50.044;15.938;2023-09-19T03:28:56;98518.56;;;25.54;48.63
74466;BME280;62916;50.044;15.938;2023-09-19T03:31:26;98518.25;;;25.58;48.80
74466;BME280;62916;50.044;15.938;2023-09-19T03:33:57;98516.60;;;25.62;48.92
74466;BME280;62916;50.044;15.938;2023-09-19T03:36:30;98518.61;;;25.64;48.88
74466;BME280;62916;50.044;15.938;2023-09-19T03:39:01;98522.16;;;25.68;48.81
74466;BME280;62916;50.044;15.938;2023-09-19T03:41:32;98525.25;;;25.71;48.95
74466;BME280;62916;50.044;15.938;2023-09-19T03:44:06;98529.20;;;25.73;48.91
74466;BME280;62916;50.044;15.938;2023-09-19T03:46:37;98532.91;;;25.76;49.04
74466;BME280;62916;50.044;15.938;2023-09-19T03:49:08;98532.48;;;25.78;49.08
74466;BME280;62916;50.044;15.938;2023-09-19T03:51:40;98533.53;;;25.81;49.29
74466;BME280;62916;50.044;15.938;2023-09-19T03:54:11;98534.50;;;25.85;49.42
74466;BME280;62916;50.044;15.938;2023-09-19T03:56:42;98534.58;;;25.88;49.36
74466;BME280;62916;50.044;15.938;2023-09-19T03:59:13;98534.31;;;25.91;49.11
74466;BME280;62916;50.044;15.938;2023-09-19T04:01:44;98533.08;;;25.93;49.23
74466;BME280;62916;50.044;15.938;2023-09-19T04:04:15;98531.42;;;25.96;49.60
74466;BME280;62916;50.044;15.938;2023-09-19T04:06:48;98531.31;;;25.98;49.34
74466;BME280;62916;50.044;15.938;2023-09-19T04:09:19;98529.58;;;26.00;49.16
74466;BME280;62916;50.044;15.938;2023-09-19T04:11:50;98524.83;;;26.01;49.39
74466;BME280;62916;50.044;15.938;2023-09-19T04:14:21;98520.08;;;26.03;49.38
74466;BME280;62916;50.044;15.938;2023-09-19T04:16:52;98523.20;;;26.05;49.44
74466;BME280;62916;50.044;15.938;2023-09-19T04:19:23;98525.83;;;26.07;49.43
74466;BME280;62916;50.044;15.938;2023-09-19T04:21:54;98523.04;;;26.09;49.26
74466;BME280;62916;50.044;15.938;2023-09-19T04:24:25;98523.67;;;26.12;49.44
74466;BME280;62916;50.044;15.938;2023-09-19T04:26:56;98520.98;;;26.14;49.65
74466;BME280;62916;50.044;15.938;2023-09-19T04:29:28;98522.62;;;26.15;49.45
74466;BME280;62916;50.044;15.938;2023-09-19T04:31:59;98522.54;;;26.15;49.22
74466;BME280;62916;50.044;15.938;2023-09-19T04:34:30;98521.20;;;26.14;49.46
74466;BME280;62916;50.044;15.938;2023-09-19T04:37:01;98526.58;;;26.15;49.21
74466;BME280;62916;50.044;15.938;2023-09-19T04:39:33;98525.77;;;26.14;49.25
74466;BME280;62916;50.044;15.938;2023-09-19T04:42:05;98526.42;;;26.15;49.32
74466;BME280;62916;50.044;15.938;2023-09-19T04:44:36;98535.20;;;26.16;49.18
74466;BME280;62916;50.044;15.938;2023-09-19T04:47:08;98533.20;;;26.17;49.19
74466;BME280;62916;50.044;15.938;2023-09-19T04:49:41;98536.13;;;26.17;49.17
74466;BME280;62916;50.044;15.938;2023-09-19T04:52:12;98537.85;;;26.18;49.09
74466;BME280;62916;50.044;15.938;2023-09-19T04:54:45;98546.14;;;26.18;48.86
74466;BME280;62916;50.044;15.938;2023-09-19T04:57:17;98552.55;;;26.18;48.91
74466;BME280;62916;50.044;15.938;2023-09-19T04:59:48;98554.97;;;26.17;48.95
74466;BME280;62916;50.044;15.938;2023-09-19T05:02:19;98557.84;;;26.18;48.71
74466;BME280;62916;50.044;15.938;2023-09-19T05:04:50;98561.16;;;26.18;48.61
74466;BME280;62916;50.044;15.938;2023-09-19T05:07:23;98558.46;;;26.17;48.73
74466;BME280;62916;50.044;15.938;2023-09-19T05:09:55;98556.42;;;26.17;48.55
74466;BME280;62916;50.044;15.938;2023-09-19T05:12:27;98557.87;;;26.16;48.56
74466;BME280;62916;50.044;15.938;2023-09-19T05:14:58;98559.73;;;26.15;48.47
74466;BME280;62916;50.044;15.938;2023-09-19T05:17:28;98559.08;;;26.15;48.31
74466;BME280;62916;50.044;15.938;2023-09-19T05:20:00;98567.40;;;26.13;48.39
74466;BME280;62916;50.044;15.938;2023-09-19T05:22:35;98572.10;;;26.13;48.57
74466;BME280;62916;50.044;15.938;2023-09-19T05:25:09;98573.80;;;26.13;48.58
74466;BME280;62916;50.044;15.938;2023-09-19T05:27:40;98578.05;;;26.13;48.24
74466;BME280;62916;50.044;15.938;2023-09-19T05:30:13;98586.00;;;26.13;48.50
74466;BME280;62916;50.044;15.938;2023-09-19T05:32:47;98587.55;;;26.14;48.69
74466;BME280;62916;50.044;15.938;2023-09-19T05:35:18;98595.04;;;26.14;48.71
74466;BME280;62916;50.044;15.938;2023-09-19T05:37:51;98599.27;;;26.15;48.46
74466;BME280;62916;50.044;15.938;2023-09-19T05:40:22;98601.13;;;26.14;48.53
74466;BME280;62916;50.044;15.938;2023-09-19T05:42:54;98604.37;;;26.14;48.46
74466;BME280;62916;50.044;15.938;2023-09-19T05:45:25;98607.45;;;26.14;48.34
74466;BME280;62916;50.044;15.938;2023-09-19T05:48:05;98613.38;;;26.14;48.42
74466;BME280;62916;50.044;15.938;2023-09-19T05:50:38;98612.71;;;26.13;48.43
74466;BME280;62916;50.044;15.938;2023-09-19T05:53:09;98620.84;;;26.14;48.44
74466;BME280;62916;50.044;15.938;2023-09-19T05:55:41;98628.08;;;26.14;48.24
74466;BME280;62916;50.044;15.938;2023-09-19T05:58:12;98632.70;;;26.14;48.37
74466;BME280;62916;50.044;15.938;2023-09-19T06:00:44;98638.98;;;26.14;48.21
74466;BME280;62916;50.044;15.938;2023-09-19T06:03:16;98640.77;;;26.15;48.45
74466;BME280;62916;50.044;15.938;2023-09-19T06:05:48;98643.36;;;26.14;48.33
74466;BME280;62916;50.044;15.938;2023-09-19T06:08:20;98645.63;;;26.14;48.20
74466;BME280;62916;50.044;15.938;2023-09-19T06:10:51;98644.34;;;26.15;48.37
74466;BME280;62916;50.044;15.938;2023-09-19T06:13:22;98648.34;;;26.16;48.41
74466;BME280;62916;50.044;15.938;2023-09-19T06:15:54;98640.55;;;26.09;48.31
74466;BME280;62916;50.044;15.938;2023-09-19T06:18:26;98652.67;;;26.13;48.16
74466;BME280;62916;50.044;15.938;2023-09-19T06:20:59;98652.20;;;26.14;48.20
74466;BME280;62916;50.044;15.938;2023-09-19T06:23:32;98656.02;;;26.14;48.36
74466;BME280;62916;50.044;15.938;2023-09-19T06:26:03;98659.59;;;26.14;48.28
74466;BME280;62916;50.044;15.938;2023-09-19T06:28:36;98657.42;;;26.12;48.30
74466;BME280;62916;50.044;15.938;2023-09-19T06:31:07;98663.71;;;26.13;48.18
74466;BME280;62916;50.044;15.938;2023-09-19T06:33:40;98668.90;;;26.13;48.34
74466;BME280;62916;50.044;15.938;2023-09-19T06:36:11;98672.30;;;26.13;48.42
74466;BME280;62916;50.044;15.938;2023-09-19T06:38:42;98672.84;;;26.12;48.28
74466;BME280;62916;50.044;15.938;2023-09-19T06:41:13;98674.64;;;26.12;48.34
74466;BME280;62916;50.044;15.938;2023-09-19T06:43:45;98673.66;;;26.12;47.94
74466;BME280;62916;50.044;15.938;2023-09-19T06:46:16;98673.50;;;26.12;48.26
74466;BME280;62916;50.044;15.938;2023-09-19T06:48:47;98675.91;;;26.11;48.09
74466;BME280;62916;50.044;15.938;2023-09-19T06:51:19;98682.64;;;26.11;48.15
74466;BME280;62916;50.044;15.938;2023-09-19T06:53:50;98690.28;;;26.11;48.04
74466;BME280;62916;50.044;15.938;2023-09-19T06:56:24;98688.64;;;26.10;48.20
74466;BME280;62916;50.044;15.938;2023-09-19T06:58:55;98692.13;;;26.10;48.31
74466;BME280;62916;50.044;15.938;2023-09-19T07:01:26;98692.79;;;26.11;48.28
74466;BME280;62916;50.044;15.938;2023-09-19T07:03:57;98695.16;;;26.11;48.18
74466;BME280;62916;50.044;15.938;2023-09-19T07:06:28;98696.94;;;26.11;48.27
74466;BME280;62916;50.044;15.938;2023-09-19T07:09:00;98703.90;;;26.10;47.90
74466;BME280;62916;50.044;15.938;2023-09-19T07:11:31;98703.39;;;26.09;48.28
74466;BME280;62916;50.044;15.938;2023-09-19T07:14:03;98705.31;;;26.11;48.37
74466;BME280;62916;50.044;15.938;2023-09-19T07:16:35;98702.14;;;26.11;48.15
74466;BME280;62916;50.044;15.938;2023-09-19T07:19:06;98705.98;;;26.11;48.34
74466;BME280;62916;50.044;15.938;2023-09-19T07:21:37;98707.05;;;26.12;48.18
74466;BME280;62916;50.044;15.938;2023-09-19T07:24:09;98709.00;;;26.12;48.29
74466;BME280;62916;50.044;15.938;2023-09-19T07:26:40;98708.95;;;26.13;48.23
74466;BME280;62916;50.044;15.938;2023-09-19T07:29:11;98709.20;;;26.14;48.22
74466;BME280;62916;50.044;15.938;2023-09-19T07:31:41;98708.50;;;26.15;48.08
74466;BME280;62916;50.044;15.938;2023-09-19T07:34:13;98711.32;;;26.14;48.31
74466;BME280;62916;50.044;15.938;2023-09-19T07:36:44;98717.09;;;26.14;48.14
74466;BME280;62916;50.044;15.938;2023-09-19T07:39:16;98721.90;;;26.15;48.14
74466;BME280;62916;50.044;15.938;2023-09-19T07:41:52;98723.52;;;26.14;47.99
74466;BME280;62916;50.044;15.938;2023-09-19T07:44:23;98722.12;;;26.14;48.08
74466;BME280;62916;50.044;15.938;2023-09-19T07:46:55;98726.59;;;26.14;48.00
74466;BME280;62916;50.044;15.938;2023-09-19T07:49:26;98729.52;;;26.14;48.06
74466;BME280;62916;50.044;15.938;2023-09-19T07:51:57;98729.23;;;26.16;48.18
74466;BME280;62916;50.044;15.938;2023-09-19T07:54:28;98731.02;;;26.16;48.13
74466;BME280;62916;50.044;15.938;2023-09-19T07:57:06;98731.09;;;26.16;48.07
74466;BME280;62916;50.044;15.938;2023-09-19T07:59:38;98732.16;;;26.16;48.22
74466;BME280;62916;50.044;15.938;2023-09-19T08:02:11;98733.87;;;26.16;48.15
74466;BME280;62916;50.044;15.938;2023-09-19T08:04:46;98737.52;;;26.16;48.01
74466;BME280;62916;50.044;15.938;2023-09-19T08:07:17;98734.66;;;26.15;47.98
74466;BME280;62916;50.044;15.938;2023-09-19T08:09:48;98737.93;;;26.16;48.13
74466;BME280;62916;50.044;15.938;2023-09-19T08:12:19;98744.17;;;26.16;48.08
74466;BME280;62916;50.044;15.938;2023-09-19T08:14:54;98748.73;;;26.17;47.90
74466;BME280;62916;50.044;15.938;2023-09-19T08:17:25;98748.34;;;26.17;48.04
74466;BME280;62916;50.044;15.938;2023-09-19T08:19:56;98755.88;;;26.17;47.96
74466;BME280;62916;50.044;15.938;2023-09-19T08:22:27;98758.50;;;26.18;48.19
74466;BME280;62916;50.044;15.938;2023-09-19T08:24:58;98759.90;;;26.18;47.86
74466;BME280;62916;50.044;15.938;2023-09-19T08:27:34;98761.30;;;26.15;47.95
74466;BME280;62916;50.044;15.938;2023-09-19T08:30:07;98765.10;;;26.19;48.13
74466;BME280;62916;50.044;15.938;2023-09-19T08:32:38;98761.39;;;26.19;47.89
74466;BME280;62916;50.044;15.938;2023-09-19T08:35:11;98760.29;;;26.20;47.94
74466;BME280;62916;50.044;15.938;2023-09-19T08:37:43;98759.48;;;26.20;47.88
74466;BME280;62916;50.044;15.938;2023-09-19T08:40:16;98757.20;;;26.21;47.84
74466;BME280;62916;50.044;15.938;2023-09-19T08:42:50;98761.20;;;26.21;47.84
74466;BME280;62916;50.044;15.938;2023-09-19T08:45:24;98766.80;;;26.21;48.08
74466;BME280;62916;50.044;15.938;2023-09-19T08:48:03;98770.06;;;26.21;48.10
74466;BME280;62916;50.044;15.938;2023-09-19T08:50:42;98771.13;;;26.22;47.94
74466;BME280;62916;50.044;15.938;2023-09-19T08:53:19;98770.76;;;26.23;47.72
74466;BME280;62916;50.044;15.938;2023-09-19T08:55:53;98775.15;;;26.23;47.97
74466;BME280;62916;50.044;15.938;2023-09-19T08:58:31;98776.79;;;26.24;48.01
74466;BME280;62916;50.044;15.938;2023-09-19T09:01:06;98783.20;;;26.24;48.00
74466;BME280;62916;50.044;15.938;2023-09-19T09:03:38;98782.23;;;26.24;47.70
74466;BME280;62916;50.044;15.938;2023-09-19T09:06:11;98787.20;;;26.24;48.10
74466;BME280;62916;50.044;15.938;2023-09-19T09:08:45;98791.22;;;26.26;47.86
74466;BME280;62916;50.044;15.938;2023-09-19T09:11:17;98789.03;;;26.26;47.92
74466;BME280;62916;50.044;15.938;2023-09-19T09:13:49;98793.34;;;26.26;47.88
74466;BME280;62916;50.044;15.938;2023-09-19T09:16:20;98799.13;;;26.27;47.90
74466;BME280;62916;50.044;15.938;2023-09-19T09:18:56;98801.23;;;26.27;48.05
74466;BME280;62916;50.044;15.938;2023-09-19T09:21:27;98804.20;;;26.28;47.95
74466;BME280;62916;50.044;15.938;2023-09-19T09:23:58;98803.48;;;26.28;47.56
74466;BME280;62916;50.044;15.938;2023-09-19T09:26:44;98802.86;;;26.29;47.67
74466;BME280;62916;50.044;15.938;2023-09-19T09:29:17;98802.53;;;26.29;47.76
74466;BME280;62916;50.044;15.938;2023-09-19T09:32:20;98803.70;;;26.30;47.82
74466;BME280;62916;50.044;15.938;2023-09-19T09:34:53;98801.92;;;26.30;47.76
74466;BME280;62916;50.044;15.938;2023-09-19T09:51:50;98807.11;;;26.85;46.71
74466;BME280;62916;50.044;15.938;2023-09-19T09:54:30;98806.77;;;26.85;46.38
74466;BME280;62916;50.044;15.938;2023-09-19T09:57:08;98814.02;;;26.78;46.93
74466;BME280;62916;50.044;15.938;2023-09-19T09:59:52;98811.41;;;26.71;46.89
74466;BME280;62916;50.044;15.938;2023-09-19T10:02:28;98813.63;;;26.66;47.11
74466;BME280;62916;50.044;15.938;2023-09-19T10:05:13;98815.85;;;26.64;47.03
74466;BME280;62916;50.044;15.938;2023-09-19T10:07:52;98816.91;;;26.61;47.19
74466;BME280;62916;50.044;15.938;2023-09-19T10:10:34;98816.46;;;26.59;46.98
74466;BME280;62916;50.044;15.938;2023-09-19T10:13:27;98820.39;;;26.57;47.19
74466;BME280;62916;50.044;15.938;2023-09-19T10:16:06;98819.89;;;26.56;47.27
74466;BME280;62916;50.044;15.938;2023-09-19T10:18:41;98823.30;;;26.55;47.07
74466;BME280;62916;50.044;15.938;2023-09-19T10:21:14;98824.65;;;26.55;47.15
74466;BME280;62916;50.044;15.938;2023-09-19T10:23:45;98825.35;;;26.53;47.26
74466;BME280;62916;50.044;15.938;2023-09-19T10:26:18;98830.37;;;26.53;47.06
74466;BME280;62916;50.044;15.938;2023-09-19T10:28:48;98826.87;;;26.53;47.15
74466;BME280;62916;50.044;15.938;2023-09-19T10:31:21;98827.78;;;26.50;47.28
74466;BME280;62916;50.044;15.938;2023-09-19T10:33:54;98827.38;;;26.50;47.10
74466;BME280;62916;50.044;15.938;2023-09-19T10:36:26;98825.74;;;26.50;47.16
74466;BME280;62916;50.044;15.938;2023-09-19T10:39:00;98827.19;;;26.50;47.30
74466;BME280;62916;50.044;15.938;2023-09-19T10:41:36;98827.10;;;26.49;47.32
74466;BME280;62916;50.044;15.938;2023-09-19T10:44:07;98831.48;;;26.49;47.30
74466;BME280;62916;50.044;15.938;2023-09-19T10:46:39;98834.48;;;26.48;47.01
74466;BME280;62916;50.044;15.938;2023-09-19T10:49:12;98832.10;;;26.48;47.08
74466;BME280;62916;50.044;15.938;2023-09-19T10:51:44;98827.24;;;26.49;47.05
74466;BME280;62916;50.044;15.938;2023-09-19T10:54:19;98821.48;;;26.49;47.21
74466;BME280;62916;50.044;15.938;2023-09-19T10:56:56;98825.93;;;26.51;46.94
74466;BME280;62916;50.044;15.938;2023-09-19T10:59:28;98824.72;;;26.51;47.05
74466;BME280;62916;50.044;15.938;2023-09-19T11:02:17;98827.67;;;26.52;46.94
74466;BME280;62916;50.044;15.938;2023-09-19T11:04:48;98821.70;;;26.53;46.78
74466;BME280;62916;50.044;15.938;2023-09-19T11:07:19;98825.86;;;26.54;46.92
74466;BME280;62916;50.044;15.938;2023-09-19T11:09:52;98825.08;;;26.55;46.90
74466;BME280;62916;50.044;15.938;2023-09-19T11:12:51;98821.60;;;26.56;46.90
74466;BME280;62916;50.044;15.938;2023-09-19T11:18:56;98823.71;;;26.56;47.27
74466;BME280;62916;50.044;15.938;2023-09-19T11:21:53;98826.56;;;26.57;46.86
74466;BME280;62916;50.044;15.938;2023-09-19T11:24:32;98828.92;;;26.57;46.80
74466;BME280;62916;50.044;15.938;2023-09-19T11:27:14;98825.92;;;26.57;46.97
74466;BME280;62916;50.044;15.938;2023-09-19T11:29:47;98828.61;;;26.58;46.83
74466;BME280;62916;50.044;15.938;2023-09-19T11:36:00;98821.73;;;26.59;46.62
74466;BME280;62916;50.044;15.938;2023-09-19T11:38:59;98821.66;;;26.59;46.77
74466;BME280;62916;50.044;15.938;2023-09-19T11:41:41;98829.22;;;26.59;46.74
74466;BME280;62916;50.044;15.938;2023-09-19T11:44:34;98830.47;;;26.60;46.78
74466;BME280;62916;50.044;15.938;2023-09-19T11:47:09;98829.02;;;26.61;46.53
74466;BME280;62916;50.044;15.938;2023-09-19T11:49:42;98827.01;;;26.61;46.67
74466;BME280;62916;50.044;15.938;2023-09-19T11:52:22;98822.45;;;26.61;46.72
74466;BME280;62916;50.044;15.938;2023-09-19T11:54:57;98827.51;;;26.62;46.44
74466;BME280;62916;50.044;15.938;2023-09-19T11:57:29;98819.84;;;26.57;46.58
74466;BME280;62916;50.044;15.938;2023-09-19T12:00:01;98832.40;;;26.63;46.66
74466;BME280;62916;50.044;15.938;2023-09-19T12:02:39;98819.06;;;26.55;46.34
74466;BME280;62916;50.044;15.938;2023-09-19T12:05:11;98831.34;;;26.62;46.64
74466;BME280;62916;50.044;15.938;2023-09-19T12:07:48;98832.27;;;26.61;46.46
74466;BME280;62916;50.044;15.938;2023-09-19T12:10:19;98834.48;;;26.61;46.36
74466;BME280;62916;50.044;15.938;2023-09-19T12:12:54;98833.02;;;26.61;46.38
74466;BME280;62916;50.044;15.938;2023-09-19T12:15:26;98833.34;;;26.61;46.40
74466;BME280;62916;50.044;15.938;2023-09-19T12:18:05;98833.58;;;26.61;46.36
74466;BME280;62916;50.044;15.938;2023-09-19T12:20:46;98824.14;;;26.61;46.31
74466;BME280;62916;50.044;15.938;2023-09-19T12:23:19;98827.32;;;26.61;46.41
74466;BME280;62916;50.044;15.938;2023-09-19T12:25:51;98826.61;;;26.61;46.38
74466;BME280;62916;50.044;15.938;2023-09-19T12:28:25;98831.02;;;26.62;46.17
74466;BME280;62916;50.044;15.938;2023-09-19T12:30:58;98831.15;;;26.61;46.06
74466;BME280;62916;50.044;15.938;2023-09-19T12:33:37;98829.69;;;26.61;46.20
74466;BME280;62916;50.044;15.938;2023-09-19T12:36:22;98825.11;;;26.60;46.32
74466;BME280;62916;50.044;15.938;2023-09-19T12:38:59;98824.42;;;26.59;46.13
74466;BME280;62916;50.044;15.938;2023-09-19T12:41:30;98823.04;;;26.59;45.88
74466;BME280;62916;50.044;15.938;2023-09-19T12:44:02;98826.29;;;26.59;46.27
74466;BME280;62916;50.044;15.938;2023-09-19T12:46:38;98827.51;;;26.59;46.26
74466;BME280;62916;50.044;15.938;2023-09-19T12:49:19;98823.92;;;26.59;46.36
74466;BME280;62916;50.044;15.938;2023-09-19T12:51:51;98822.63;;;26.59;46.51
74466;BME280;62916;50.044;15.938;2023-09-19T12:54:39;98818.93;;;26.60;46.41
74466;BME280;62916;50.044;15.938;2023-09-19T12:57:10;98814.48;;;26.61;46.48
74466;BME280;62916;50.044;15.938;2023-09-19T12:59:54;98815.15;;;26.61;46.48
74466;BME280;62916;50.044;15.938;2023-09-19T13:02:27;98815.81;;;26.62;46.53
74466;BME280;62916;50.044;15.938;2023-09-19T13:04:58;98810.05;;;26.62;46.32
74466;BME280;62916;50.044;15.938;2023-09-19T13:07:44;98814.27;;;26.62;46.03
74466;BME280;62916;50.044;15.938;2023-09-19T13:10:16;98812.17;;;26.63;46.36
74466;BME280;62916;50.044;15.938;2023-09-19T13:12:50;98818.05;;;26.64;46.16
74466;BME280;62916;50.044;15.938;2023-09-19T13:15:21;98815.80;;;26.64;46.39
74466;BME280;62916;50.044;15.938;2023-09-19T13:17:55;98813.11;;;26.65;46.32
74466;BME280;62916;50.044;15.938;2023-09-19T13:20:31;98805.70;;;26.61;45.92
74466;BME280;62916;50.044;15.938;2023-09-19T13:23:27;98807.02;;;26.65;46.13
74466;BME280;62916;50.044;15.938;2023-09-19T13:25:58;98812.01;;;26.65;46.22
74466;BME280;62916;50.044;15.938;2023-09-19T13:28:29;98810.80;;;26.66;46.13
74466;BME280;62916;50.044;15.938;2023-09-19T13:31:00;98815.03;;;26.67;46.17
74466;BME280;62916;50.044;15.938;2023-09-19T13:33:31;98803.27;;;26.64;45.88
74466;BME280;62916;50.044;15.938;2023-09-19T13:36:03;98800.95;;;26.66;46.16
74466;BME280;62916;50.044;15.938;2023-09-19T13:38:34;98790.98;;;26.67;46.20
74466;BME280;62916;50.044;15.938;2023-09-19T13:41:05;98785.22;;;26.68;46.05
74466;BME280;62916;50.044;15.938;2023-09-19T13:43:36;98784.73;;;26.68;46.33
74466;BME280;62916;50.044;15.938;2023-09-19T13:46:08;98784.66;;;26.68;46.11